Time;durP1;ratioP1;P1;durP2;ratioP2;P2;SDS_P1;SDS_P2;PMS_P1;PMS_P2;Temp;Humidity;BMP_temperature;BMP_pressure;BME280_temperature;BME280_humidity;BME280_pressure;Samples;Min_cycle;Max_cycle;Signal;HPM_P1;HPM_P2
2021/01/10 00:00:23;;;;;;;25.55;13.75;;;;;;;-0.07;98.93;102209.38;6271365;28;20048;-75
2021/01/10 00:03:24;;;;;;;27.15;14.95;;;;;;;-0.07;99.70;102209.38;6271661;28;20115;-77
2021/01/10 00:06:25;;;;;;;29.13;15.05;;;;;;;-0.11;100.00;102197.28;6271218;28;20064;-76
2021/01/10 00:09:26;;;;;;;30.30;14.20;;;;;;;-0.16;100.00;102206.69;6271514;28;20049;-76
2021/01/10 00:12:28;;;;;;;25.98;14.35;;;;;;;-0.22;100.00;102207.47;6271484;28;20053;-75
2021/01/10 00:15:30;;;;;;;27.52;13.93;;;;;;;-0.28;100.00;102210.81;6269081;28;20049;-77
2021/01/10 00:18:30;;;;;;;27.17;13.70;;;;;;;-0.33;100.00;102207.28;6270995;28;20398;-76
2021/01/10 00:21:35;;;;;;;31.05;15.30;;;;;;;-0.32;100.00;102218.47;6271360;28;20048;-75
2021/01/10 00:24:36;;;;;;;25.17;14.68;;;;;;;-0.32;100.00;102211.63;6246980;28;20056;-75
2021/01/10 00:27:38;;;;;;;27.70;13.30;;;;;;;-0.35;100.00;102200.38;6247041;28;20049;-76
2021/01/10 00:30:39;;;;;;;27.75;15.18;;;;;;;-0.36;100.00;102211.56;6246674;28;20049;-76
2021/01/10 00:33:40;;;;;;;37.72;17.75;;;;;;;-0.48;100.00;102208.78;6246965;28;20045;-76
2021/01/10 00:36:40;;;;;;;29.52;15.38;;;;;;;-0.55;100.00;102210.38;6246630;28;20045;-76
2021/01/10 00:39:41;;;;;;;27.40;14.93;;;;;;;-0.61;100.00;102213.75;6246428;28;20111;-76
2021/01/10 00:42:44;;;;;;;29.85;15.55;;;;;;;-0.66;100.00;102211.94;6246968;28;20478;-76
2021/01/10 00:45:45;;;;;;;28.83;15.65;;;;;;;-0.73;100.00;102207.50;6246680;28;20046;-76
2021/01/10 00:48:46;;;;;;;27.27;14.77;;;;;;;-0.79;100.00;102216.03;6246181;28;20430;-76
2021/01/10 00:51:49;;;;;;;32.13;15.00;;;;;;;-0.86;100.00;102209.91;6251959;28;20531;-75
2021/01/10 00:54:50;;;;;;;27.40;14.30;;;;;;;-0.94;100.00;102208.03;6271279;28;20052;-76
2021/01/10 00:57:51;;;;;;;25.55;13.48;;;;;;;-1.00;100.00;102202.72;6271099;28;20509;-76
2021/01/10 01:00:52;;;;;;;30.88;13.23;;;;;;;-1.05;100.00;102207.81;6270789;28;20111;-75
2021/01/10 01:03:53;;;;;;;25.73;13.48;;;;;;;-1.15;100.00;102206.78;6270809;28;20048;-76
2021/01/10 01:06:54;;;;;;;26.27;13.85;;;;;;;-1.18;100.00;102211.91;6270705;28;20081;-76
2021/01/10 01:09:55;;;;;;;30.58;14.75;;;;;;;-1.20;100.00;102215.28;6270877;28;20045;-76
2021/01/10 01:12:56;;;;;;;33.40;16.38;;;;;;;-1.17;100.00;102212.78;6271054;28;20045;-76
2021/01/10 01:15:57;;;;;;;43.15;18.10;;;;;;;-1.14;100.00;102218.84;6270963;28;20500;-75
2021/01/10 01:18:58;;;;;;;33.03;15.75;;;;;;;-1.09;100.00;102219.81;6270663;28;20053;-75
2021/01/10 01:22:00;;;;;;;39.33;17.83;;;;;;;-1.01;100.00;102222.50;6270847;28;20512;-76
2021/01/10 01:25:02;;;;;;;27.85;14.40;;;;;;;-0.95;100.00;102225.22;6270812;28;20135;-75
2021/01/10 01:28:04;;;;;;;23.73;14.25;;;;;;;-0.98;100.00;102232.91;6270791;28;20049;-76
2021/01/10 01:31:05;;;;;;;24.48;14.18;;;;;;;-0.90;100.00;102236.50;6270408;28;20414;-75
2021/01/10 01:34:06;;;;;;;29.48;15.05;;;;;;;-0.82;100.00;102239.19;6270791;28;20112;-76
2021/01/10 01:37:07;;;;;;;28.55;14.80;;;;;;;-0.75;100.00;102246.19;6270501;28;20045;-75
2021/01/10 01:40:09;;;;;;;29.02;14.52;;;;;;;-0.71;100.00;102242.84;6270356;28;20053;-76
2021/01/10 01:43:11;;;;;;;24.65;14.38;;;;;;;-0.67;100.00;102252.38;6270649;28;20052;-76
2021/01/10 01:46:18;;;;;;;28.38;14.90;;;;;;;-0.62;100.00;102248.16;6270508;28;20099;-76
2021/01/10 01:49:22;;;;;;;27.15;14.60;;;;;;;-0.58;100.00;102246.50;6270489;28;20045;-75
2021/01/10 01:52:22;;;;;;;30.58;15.55;;;;;;;-0.59;100.00;102247.31;6270430;28;20049;-76
2021/01/10 01:55:23;;;;;;;29.60;15.95;;;;;;;-0.56;100.00;102252.53;6270576;28;20513;-75
2021/01/10 01:58:27;;;;;;;27.88;14.90;;;;;;;-0.58;100.00;102251.66;6270239;28;20045;-76
2021/01/10 02:01:29;;;;;;;24.58;14.05;;;;;;;-0.53;100.00;102252.59;6270223;28;20057;-76
2021/01/10 02:04:34;;;;;;;29.45;15.23;;;;;;;-0.54;100.00;102249.16;6270242;28;20063;-76
2021/01/10 02:07:42;;;;;;;25.63;14.27;;;;;;;-0.51;100.00;102246.59;6270389;28;20494;-75
2021/01/10 02:10:43;;;;;;;31.02;15.32;;;;;;;-0.48;100.00;102240.63;6269875;28;20418;-76
2021/01/10 02:13:47;;;;;;;30.17;16.45;;;;;;;-0.43;100.00;102245.88;6272679;28;20115;-76
2021/01/10 02:16:49;;;;;;;31.33;15.63;;;;;;;-0.41;100.00;102244.16;6274950;28;20528;-75
2021/01/10 02:19:57;;;;;;;33.75;17.23;;;;;;;-0.37;100.00;102239.06;6274412;28;20045;-76
2021/01/10 02:23:03;;;;;;;32.50;17.05;;;;;;;-0.33;100.00;102238.28;6274588;28;20057;-74
2021/01/10 02:26:06;;;;;;;33.67;16.83;;;;;;;-0.31;100.00;102230.56;6274273;28;20044;-75
2021/01/10 02:29:07;;;;;;;37.20;17.23;;;;;;;-0.29;100.00;102229.75;6274405;28;20053;-76
2021/01/10 02:32:09;;;;;;;36.05;18.20;;;;;;;-0.27;100.00;102224.63;6274444;28;20053;-76
2021/01/10 02:35:11;;;;;;;44.15;18.08;;;;;;;-0.25;100.00;102228.06;6274596;28;20521;-76
2021/01/10 02:38:32;;;;;;;33.88;17.20;;;;;;;-0.20;100.00;102233.31;6274065;28;20045;-76
2021/01/10 02:41:43;;;;;;;32.15;16.77;;;;;;;-0.23;100.00;102238.41;6273994;28;20045;-76
2021/01/10 02:44:53;;;;;;;32.83;17.58;;;;;;;-0.24;100.00;102241.84;6274267;28;20091;-76
2021/01/10 02:47:53;;;;;;;;;;;;;;;-0.19;100.00;102237.63;6274449;28;20052;-76
2021/01/10 02:50:54;;;;;;;34.80;17.70;;;;;;;-0.19;100.00;102230.75;6273441;28;19921;-76
2021/01/10 02:53:55;;;;;;;36.53;18.23;;;;;;;-0.19;100.00;102235.03;6273980;28;20099;-75
2021/01/10 02:57:04;;;;;;;33.67;16.85;;;;;;;-0.18;100.00;102237.66;6273529;28;20084;-76
2021/01/10 03:00:07;;;;;;;33.40;17.13;;;;;;;-0.17;100.00;102234.22;6273735;28;20048;-75
2021/01/10 03:03:10;;;;;;;40.13;18.92;;;;;;;-0.15;100.00;102231.66;6273621;28;20291;-75
2021/01/10 03:06:11;;;;;;;33.53;17.45;;;;;;;-0.10;100.00;102230.88;6273337;28;20115;-72
2021/01/10 03:09:12;;;;;;;30.77;16.90;;;;;;;-0.11;100.00;102225.69;6273171;28;20056;-71
2021/01/10 03:12:25;;;;;;;31.33;15.90;;;;;;;-0.10;100.00;102217.94;6273714;28;20049;-71
2021/01/10 03:15:26;;;;;;;35.45;17.60;;;;;;;-0.11;100.00;102217.94;6273426;28;20136;-71
2021/01/10 03:18:27;;;;;;;30.00;16.52;;;;;;;-0.09;100.00;102214.53;6273094;28;20049;-72
2021/01/10 03:21:28;;;;;;;34.10;17.02;;;;;;;-0.10;100.00;102193.84;6272653;28;20065;-71
2021/01/10 03:24:28;;;;;;;30.75;16.30;;;;;;;-0.13;100.00;102191.22;6273106;28;20056;-71
2021/01/10 03:27:30;;;;;;;31.20;16.65;;;;;;;-0.22;100.00;102191.09;6272985;28;20584;-72
2021/01/10 03:30:32;;;;;;;35.42;16.80;;;;;;;-0.33;100.00;102186.63;6272049;28;20049;-71
2021/01/10 03:33:33;;;;;;;30.75;16.02;;;;;;;-0.38;100.00;102180.53;6273156;28;20045;-71
2021/01/10 03:36:34;;;;;;;38.60;18.15;;;;;;;-0.48;100.00;102176.06;6272535;28;20048;-71
2021/01/10 03:39:35;;;;;;;33.30;16.30;;;;;;;-0.53;100.00;102177.72;6272524;28;20088;-72
2021/01/10 03:42:37;;;;;;;33.28;16.42;;;;;;;-0.58;100.00;102177.66;6272877;28;20056;-71
2021/01/10 03:45:38;;;;;;;33.45;17.52;;;;;;;-0.63;100.00;102183.59;6272743;28;20056;-71
2021/01/10 03:48:38;;;;;;;31.83;17.02;;;;;;;-0.61;100.00;102175.03;6272132;28;20056;-71
2021/01/10 03:51:39;;;;;;;38.30;17.13;;;;;;;-0.62;100.00;102173.28;6271781;28;20057;-71
2021/01/10 03:54:40;;;;;;;31.67;16.95;;;;;;;-0.61;100.00;102175.03;6272477;28;20048;-72
2021/01/10 03:57:42;;;;;;;38.00;18.83;;;;;;;-0.61;100.00;102172.44;6272055;28;20131;-71
2021/01/10 04:00:42;;;;;;;39.45;17.63;;;;;;;-0.55;100.00;102179.41;6272137;28;20048;-72
2021/01/10 04:03:43;;;;;;;39.70;18.88;;;;;;;-0.46;100.00;102178.69;6272195;28;20460;-71
2021/01/10 04:06:44;;;;;;;38.15;18.05;;;;;;;-0.44;100.00;102182.16;6271807;28;20041;-71
2021/01/10 04:09:45;;;;;;;36.25;18.75;;;;;;;-0.53;100.00;102170.84;6271769;28;20052;-71
2021/01/10 04:12:47;;;;;;;30.48;16.80;;;;;;;-0.53;100.00;102175.16;6272275;28;20055;-71
2021/01/10 04:15:48;;;;;;;40.72;17.35;;;;;;;-0.53;100.00;102170.84;6271934;28;20057;-71
2021/01/10 04:18:49;;;;;;;32.95;17.42;;;;;;;-0.47;100.00;102170.06;6271639;28;20102;-71
2021/01/10 04:21:50;;;;;;;36.50;17.65;;;;;;;-0.53;100.00;102172.56;6271642;28;20057;-71
2021/01/10 04:24:51;;;;;;;37.40;18.95;;;;;;;-0.54;100.00;102176.00;6271709;28;20103;-71
2021/01/10 04:27:53;;;;;;;40.40;18.70;;;;;;;-0.57;100.00;102175.94;6271057;28;20485;-71
2021/01/10 04:30:54;;;;;;;39.28;19.13;;;;;;;-0.54;100.00;102176.00;6271361;28;20083;-72
2021/01/10 04:33:54;;;;;;;38.83;18.08;;;;;;;-0.49;100.00;102168.31;6271742;28;20048;-71
2021/01/10 04:36:55;;;;;;;39.10;19.42;;;;;;;-0.51;100.00;102168.28;6269719;28;20041;-71
2021/01/10 04:39:56;;;;;;;41.42;18.83;;;;;;;-0.57;100.00;102166.47;6271262;28;20470;-71
2021/01/10 04:42:58;;;;;;;42.20;18.77;;;;;;;-0.54;100.00;102166.53;6271432;28;20460;-71
2021/01/10 04:45:59;;;;;;;34.95;17.33;;;;;;;-0.53;100.00;102165.69;6271217;28;20534;-71
2021/01/10 04:49:00;;;;;;;47.42;20.00;;;;;;;-0.58;100.00;102171.63;6270955;28;20081;-71
2021/01/10 04:52:02;;;;;;;48.25;20.15;;;;;;;-0.57;100.00;102171.63;6271352;28;20049;-71
2021/01/10 04:55:05;;;;;;;42.58;20.55;;;;;;;-0.52;100.00;102174.28;6271163;28;20071;-72
2021/01/10 04:58:08;;;;;;;43.80;20.55;;;;;;;-0.48;100.00;102177.78;6270798;28;20040;-71
2021/01/10 05:01:16;;;;;;;42.33;20.67;;;;;;;-0.35;100.00;102185.75;6270923;28;20053;-71
2021/01/10 05:04:17;;;;;;;45.03;20.95;;;;;;;-0.41;100.00;102172.75;6270874;28;20139;-72
2021/01/10 05:07:18;;;;;;;42.20;19.65;;;;;;;-0.37;100.00;102173.66;6270870;28;20406;-72
2021/01/10 05:10:19;;;;;;;47.30;21.08;;;;;;;-0.36;100.00;102167.66;6270482;28;20498;-71
2021/01/10 05:13:21;;;;;;;45.08;20.27;;;;;;;-0.29;100.00;102169.47;6271294;28;20055;-71
2021/01/10 05:16:22;;;;;;;50.05;21.85;;;;;;;-0.35;100.00;102161.63;6270371;28;20402;-72
2021/01/10 05:19:23;;;;;;;43.50;20.23;;;;;;;-0.29;100.00;102159.13;6270599;28;20045;-71
2021/01/10 05:22:23;;;;;;;49.15;22.48;;;;;;;-0.33;100.00;102165.09;6270771;28;20056;-74
2021/01/10 05:25:26;;;;;;;52.47;22.10;;;;;;;-0.34;100.00;102163.38;6271068;28;20103;-72
2021/01/10 05:28:29;;;;;;;50.05;21.08;;;;;;;-0.30;100.00;102163.44;6270772;28;20045;-72
2021/01/10 05:31:34;;;;;;;50.22;22.80;;;;;;;-0.28;100.00;102164.31;6270428;28;20106;-70
2021/01/10 05:34:35;;;;;;;52.15;22.08;;;;;;;-0.30;100.00;102168.59;6270849;28;20056;-72
2021/01/10 05:37:37;;;;;;;52.50;22.83;;;;;;;-0.17;100.00;102171.38;6270330;28;20076;-74
2021/01/10 05:40:38;;;;;;;51.70;23.48;;;;;;;-0.22;100.00;102175.59;6270498;28;20300;-72
2021/01/10 05:43:56;;;;;;;50.42;22.77;;;;;;;-0.18;100.00;102165.34;6270659;28;20052;-72
2021/01/10 05:47:02;;;;;;;44.78;21.23;;;;;;;-0.19;100.00;102173.91;6270474;28;20040;-73
2021/01/10 05:50:14;;;;;;;56.63;23.38;;;;;;;-0.17;100.00;102173.94;6274434;28;20056;-71
2021/01/10 05:53:20;;;;;;;48.92;22.40;;;;;;;-0.16;100.00;102181.72;6275218;28;20532;-74
2021/01/10 05:56:21;;;;;;;50.47;21.30;;;;;;;-0.14;100.00;102174.84;6274975;28;20048;-72
2021/01/10 05:59:23;;;;;;;53.75;22.65;;;;;;;-0.13;100.00;102180.91;6275013;28;20052;-72
2021/01/10 06:02:28;;;;;;;54.75;21.90;;;;;;;-0.12;100.00;102174.88;6275231;28;20057;-72
2021/01/10 06:05:29;;;;;;;53.80;23.75;;;;;;;-0.09;100.00;102173.22;6275037;28;20052;-72
2021/01/10 06:08:33;;;;;;;56.80;22.20;;;;;;;-0.06;100.00;102175.81;6274683;28;20102;-71
2021/01/10 06:11:34;;;;;;;52.78;22.63;;;;;;;-0.07;100.00;102165.47;6274745;28;20091;-71
2021/01/10 06:14:35;;;;;;;56.33;23.65;;;;;;;0.09;100.00;102174.28;6274802;28;20424;-72
2021/01/10 06:17:41;;;;;;;56.85;23.30;;;;;;;0.01;100.00;102170.75;6274290;28;20045;-71
2021/01/10 06:20:43;;;;;;;54.08;21.88;;;;;;;0.02;100.00;102180.22;6273507;28;20425;-72
2021/01/10 06:23:47;;;;;;;56.17;23.92;;;;;;;0.01;100.00;102184.53;6274528;28;20063;-71
2021/01/10 06:27:00;;;;;;;57.20;22.23;;;;;;;-0.01;100.00;102184.50;6273708;28;20041;-73
2021/01/10 06:30:02;;;;;;;50.92;23.00;;;;;;;0.14;100.00;102189.00;6272224;28;20053;-74
2021/01/10 06:33:05;;;;;;;56.13;22.58;;;;;;;0.09;100.00;102185.50;6274179;28;20053;-74
2021/01/10 06:36:08;;;;;;;60.38;23.92;;;;;;;0.09;100.00;102184.59;6274034;28;20091;-76
2021/01/10 06:39:10;;;;;;;48.22;20.88;;;;;;;0.10;100.00;102187.22;6273695;28;20052;-75
2021/01/10 06:42:13;;;;;;;54.35;22.70;;;;;;;0.08;100.00;102180.28;6273857;28;20052;-75
2021/01/10 06:45:17;;;;;;;58.33;23.05;;;;;;;0.17;100.00;102177.81;6273821;28;20048;-75
2021/01/10 06:48:25;;;;;;;55.25;23.13;;;;;;;0.11;100.00;102180.34;6271355;28;20041;-74
2021/01/10 06:51:28;;;;;;;57.35;24.20;;;;;;;0.13;100.00;102173.47;6273267;28;20051;-76
2021/01/10 06:54:29;;;;;;;63.90;24.35;;;;;;;0.18;100.00;102171.81;6273881;28;20465;-76
2021/01/10 06:57:31;;;;;;;57.10;23.10;;;;;;;0.19;100.00;102174.44;6273711;28;20099;-76
2021/01/10 07:00:54;;;;;;;56.97;23.65;;;;;;;0.18;100.00;102170.13;6273313;28;20122;-76
2021/01/10 07:03:57;;;;;;;53.30;21.65;;;;;;;0.21;100.00;102171.84;6273824;28;20049;-75
2021/01/10 07:06:58;;;;;;;53.47;21.95;;;;;;;0.20;100.00;102170.97;6273435;28;20056;-75
2021/01/10 07:09:59;;;;;;;50.35;22.38;;;;;;;0.26;100.00;102177.94;6273197;28;20049;-75
2021/01/10 07:13:24;;;;;;;49.95;21.52;;;;;;;0.32;100.00;102171.97;6273518;28;20049;-76
2021/01/10 07:16:27;;;;;;;49.65;20.33;;;;;;;0.30;100.00;102171.97;6273538;28;20052;-75
2021/01/10 07:19:39;;;;;;;46.40;20.60;;;;;;;0.30;100.00;102165.94;6272629;28;20060;-76
2021/01/10 07:22:40;;;;;;;39.85;18.15;;;;;;;0.35;100.00;102165.13;6273528;28;20048;-76
2021/01/10 07:25:42;;;;;;;45.88;18.48;;;;;;;0.50;100.00;102170.50;6273192;28;20088;-75
2021/01/10 07:28:44;;;;;;;48.70;19.17;;;;;;;0.44;100.00;102170.41;6272754;28;20044;-77
2021/01/10 07:31:55;;;;;;;46.85;20.02;;;;;;;0.46;99.46;102171.28;6273239;28;20151;-78
2021/01/10 07:35:01;;;;;;;40.65;18.60;;;;;;;0.56;99.59;102177.44;6273190;28;20569;-75
2021/01/10 07:38:06;;;;;;;45.60;20.35;;;;;;;0.52;99.12;102178.25;6272663;28;20045;-75
2021/01/10 07:41:27;;;;;;;43.63;19.50;;;;;;;0.52;98.79;102182.56;6272580;28;20460;-75
2021/01/10 07:44:46;;;;;;;49.35;20.55;;;;;;;0.50;99.90;102177.38;6272839;28;20057;-75
2021/01/10 07:47:49;;;;;;;45.22;20.90;;;;;;;0.55;99.80;102175.72;6272395;28;20052;-77
2021/01/10 07:50:50;;;;;;;44.40;20.00;;;;;;;0.53;99.97;102184.28;6272289;28;20555;-77
2021/01/10 07:53:51;;;;;;;46.92;21.08;;;;;;;0.56;100.00;102186.91;6272725;28;20049;-77
2021/01/10 07:57:25;;;;;;;45.78;20.10;;;;;;;0.53;100.00;102179.97;6272232;28;20126;-76
2021/01/10 08:00:28;;;;;;;41.55;19.35;;;;;;;0.56;100.00;102182.59;6272139;28;20060;-76
2021/01/10 08:03:30;;;;;;;47.15;18.55;;;;;;;0.71;100.00;102184.47;6272268;28;20049;-77
2021/01/10 08:06:56;;;;;;;44.95;20.08;;;;;;;0.66;98.92;102193.91;6271962;28;20048;-76
2021/01/10 08:09:59;;;;;;;43.00;19.33;;;;;;;0.67;98.98;102190.47;6271708;28;20049;-75
2021/01/10 08:13:00;;;;;;;50.70;20.17;;;;;;;0.65;99.30;102189.59;6272098;28;20106;-77
2021/01/10 08:16:02;;;;;;;47.58;20.73;;;;;;;0.66;99.06;102184.44;6271689;28;20045;-77
2021/01/10 08:19:07;;;;;;;44.78;19.55;;;;;;;0.74;98.60;102189.69;6271394;28;20049;-75
2021/01/10 08:22:08;;;;;;;45.67;20.88;;;;;;;0.67;98.89;102188.75;6271940;28;20052;-75
2021/01/10 08:25:20;;;;;;;44.30;19.20;;;;;;;0.70;98.99;102182.75;6272042;28;20056;-75
2021/01/10 08:28:21;;;;;;;42.53;19.25;;;;;;;0.77;99.34;102192.28;6271166;28;20090;-76
2021/01/10 08:31:24;;;;;;;44.38;20.30;;;;;;;0.71;99.29;102190.53;6271587;28;20128;-76
2021/01/10 08:34:25;;;;;;;43.20;18.75;;;;;;;0.71;99.12;102193.09;6271501;28;20057;-75
2021/01/10 08:37:26;;;;;;;41.88;19.55;;;;;;;0.74;99.59;102184.53;6271572;28;20041;-75
2021/01/10 08:40:27;;;;;;;41.85;19.55;;;;;;;0.75;99.67;102191.44;6271091;28;20422;-75
2021/01/10 08:43:28;;;;;;;43.03;18.98;;;;;;;0.74;99.84;102194.88;6271511;28;20133;-76
2021/01/10 08:46:31;;;;;;;38.55;18.70;;;;;;;0.76;99.42;102193.16;6270731;28;20049;-75
2021/01/10 08:49:33;;;;;;;36.05;17.17;;;;;;;0.77;99.82;102197.47;6271174;28;20061;-75
2021/01/10 08:52:34;;;;;;;45.15;19.45;;;;;;;0.81;99.40;102195.78;6269934;28;20049;-75
2021/01/10 08:55:37;;;;;;;37.72;18.65;;;;;;;0.84;99.61;102206.19;6271017;28;20045;-75
2021/01/10 08:58:38;;;;;;;41.35;19.75;;;;;;;0.84;98.32;102198.41;6270549;28;20560;-76
2021/01/10 09:01:40;;;;;;;39.15;18.70;;;;;;;0.85;98.52;102208.78;6271194;28;20049;-75
2021/01/10 09:04:42;;;;;;;41.35;18.15;;;;;;;0.81;99.21;102201.84;6270612;28;20052;-75
2021/01/10 09:07:45;;;;;;;37.90;17.75;;;;;;;0.87;99.09;102209.69;6270104;28;20045;-75
2021/01/10 09:10:53;;;;;;;42.03;18.95;;;;;;;0.82;98.32;102193.25;6262215;28;20418;-74
2021/01/10 09:13:58;;;;;;;36.70;17.38;;;;;;;0.76;97.87;102195.75;6270942;28;20053;-75
2021/01/10 09:17:01;;;;;;;41.00;18.00;;;;;;;0.71;97.89;102194.84;6270469;28;20056;-76
2021/01/10 09:20:06;;;;;;;38.60;17.90;;;;;;;0.68;98.45;102194.78;6270467;28;20049;-75
2021/01/10 09:23:08;;;;;;;36.63;17.80;;;;;;;0.65;98.45;102200.81;6274310;28;20056;-76
2021/01/10 09:26:23;;;;;;;36.42;16.80;;;;;;;0.57;99.08;102197.28;6275564;28;20053;-75
2021/01/10 09:29:24;;;;;;;38.05;17.55;;;;;;;0.55;98.79;102201.56;6275856;28;20045;-75
2021/01/10 09:32:26;;;;;;;38.03;19.00;;;;;;;0.63;99.38;102197.31;6275606;28;20056;-76
2021/01/10 09:35:36;;;;;;;38.72;17.65;;;;;;;0.62;99.69;102200.78;6276178;28;20096;-72
2021/01/10 09:38:37;;;;;;;41.28;18.67;;;;;;;0.65;99.32;102199.94;6274834;28;20476;-72
2021/01/10 09:41:51;;;;;;;44.25;19.48;;;;;;;0.66;99.42;102206.84;6276111;28;20083;-72
2021/01/10 09:44:53;;;;;;;38.17;17.95;;;;;;;0.73;99.41;102200.91;6275488;28;20041;-72
2021/01/10 09:47:54;;;;;;;37.50;17.58;;;;;;;0.83;99.33;102200.16;6275262;28;20505;-71
2021/01/10 09:50:56;;;;;;;37.55;17.60;;;;;;;0.86;99.01;102202.75;6274985;28;20049;-72
2021/01/10 09:54:18;;;;;;;38.70;18.80;;;;;;;0.91;99.04;102201.09;6275244;28;20053;-72
2021/01/10 09:57:19;;;;;;;42.40;19.45;;;;;;;1.03;98.73;102205.50;6275117;28;20061;-72
2021/01/10 10:00:20;;;;;;;43.80;19.60;;;;;;;1.26;98.68;102197.94;6275062;28;20178;-72
2021/01/10 10:03:21;;;;;;;42.75;17.73;;;;;;;1.29;98.04;102199.69;6275371;28;20049;-72
2021/01/10 10:06:23;;;;;;;39.72;18.13;;;;;;;1.29;98.11;102195.38;6274673;28;20429;-72
2021/01/10 10:09:43;;;;;;;38.53;18.50;;;;;;;1.55;96.46;102194.72;6274696;28;20560;-72
2021/01/10 10:12:50;;;;;;;37.70;17.27;;;;;;;1.72;95.15;102185.31;6275042;28;20060;-72
2021/01/10 10:15:54;;;;;;;35.67;17.50;;;;;;;1.59;95.07;102184.41;6274482;28;20052;-72
2021/01/10 10:18:57;;;;;;;36.30;16.95;;;;;;;1.75;95.06;102178.44;6274302;28;20049;-72
2021/01/10 10:21:59;;;;;;;38.10;17.45;;;;;;;1.74;94.42;102181.03;6274941;28;20048;-72
2021/01/10 10:25:01;;;;;;;36.92;18.08;;;;;;;1.63;94.18;102180.94;6273759;28;20476;-71
2021/01/10 10:28:04;;;;;;;39.85;18.02;;;;;;;1.68;94.26;102171.50;6272613;28;20049;-72
2021/01/10 10:31:05;;;;;;;36.10;17.85;;;;;;;1.81;93.65;102175.00;6270984;28;20076;-70
2021/01/10 10:34:06;;;;;;;34.83;17.17;;;;;;;1.76;93.31;102171.53;6273751;28;20123;-71
2021/01/10 10:37:08;;;;;;;37.25;18.08;;;;;;;1.82;94.16;102171.59;6272817;28;20549;-71
2021/01/10 10:40:11;;;;;;;41.05;18.52;;;;;;;1.91;93.90;102165.59;6273959;28;20053;-71
2021/01/10 10:43:11;;;;;;;36.30;17.58;;;;;;;1.94;93.72;102166.44;6273912;28;20049;-72
2021/01/10 10:46:12;;;;;;;41.65;19.52;;;;;;;2.05;93.16;102165.66;6273809;28;20061;-71
2021/01/10 10:49:13;;;;;;;34.78;17.13;;;;;;;2.02;92.65;102163.91;6273509;28;20421;-72
2021/01/10 10:52:15;;;;;;;38.70;18.65;;;;;;;1.89;93.32;102169.88;6273995;28;20055;-72
2021/01/10 10:55:18;;;;;;;44.72;19.48;;;;;;;1.91;93.02;102174.22;6274014;28;20095;-73
2021/01/10 10:58:19;;;;;;;36.50;17.33;;;;;;;1.94;92.08;102169.03;6273380;28;20075;-72
2021/01/10 11:01:20;;;;;;;39.90;18.63;;;;;;;2.06;92.74;102160.47;6273426;28;20059;-72
2021/01/10 11:04:21;;;;;;;38.45;17.80;;;;;;;2.09;92.24;102155.31;6273556;28;20057;-73
2021/01/10 11:07:23;;;;;;;34.95;18.33;;;;;;;2.15;93.34;102162.25;6273231;28;20041;-72
2021/01/10 11:10:24;;;;;;;40.35;19.27;;;;;;;2.32;92.46;102158.00;6273156;28;20415;-73
2021/01/10 11:13:25;;;;;;;35.30;17.63;;;;;;;2.47;91.36;102157.16;6273767;28;20049;-72
2021/01/10 11:16:29;;;;;;;40.28;17.83;;;;;;;2.41;91.62;102157.16;6272797;28;20528;-72
2021/01/10 11:19:30;;;;;;;38.75;17.55;;;;;;;2.58;91.61;102149.38;6273217;28;20048;-72
2021/01/10 11:22:35;;;;;;;40.22;17.65;;;;;;;2.65;90.44;102151.16;6273631;28;20119;-72
2021/01/10 11:25:36;;;;;;;36.90;17.67;;;;;;;2.69;90.74;102160.69;6273308;28;20084;-72
2021/01/10 11:28:37;;;;;;;35.45;16.35;;;;;;;2.84;90.42;102158.09;6272669;28;20095;-71
2021/01/10 11:31:39;;;;;;;40.42;17.20;;;;;;;2.96;88.85;102157.25;6272969;28;20049;-72
2021/01/10 11:34:40;;;;;;;42.80;18.33;;;;;;;2.71;90.99;102158.94;6272988;28;20041;-72
2021/01/10 11:37:42;;;;;;;34.92;16.13;;;;;;;2.74;89.97;102149.44;6272238;28;20046;-73
2021/01/10 11:40:42;;;;;;;38.72;17.65;;;;;;;2.59;91.15;102135.53;6272527;28;20044;-71
2021/01/10 11:43:44;;;;;;;34.60;16.90;;;;;;;2.74;90.42;102144.25;6272810;28;20467;-72
2021/01/10 11:46:47;;;;;;;34.53;15.45;;;;;;;2.82;89.15;102133.88;6271367;28;20049;-72
2021/01/10 11:49:48;;;;;;;36.42;16.25;;;;;;;2.93;90.02;102129.53;6272327;28;20121;-71
2021/01/10 11:52:50;;;;;;;31.45;15.52;;;;;;;2.76;90.13;102134.72;6256807;28;20053;-71
2021/01/10 11:55:51;;;;;;;31.88;15.85;;;;;;;2.99;90.15;102119.16;6247776;28;20100;-71
2021/01/10 11:58:51;;;;;;;26.45;13.82;;;;;;;2.89;89.52;102125.22;6254937;28;20045;-71
2021/01/10 12:01:52;;;;;;;30.92;14.50;;;;;;;2.93;89.43;102121.75;6247694;28;20390;-72
2021/01/10 12:04:53;;;;;;;29.92;14.23;;;;;;;2.89;90.17;102119.16;6247347;28;20049;-72
2021/01/10 12:07:55;;;;;;;29.15;14.10;;;;;;;2.80;90.44;102113.09;6247477;28;20072;-72
2021/01/10 12:10:56;;;;;;;29.83;14.45;;;;;;;2.79;90.40;102103.56;6266719;28;20053;-72
2021/01/10 12:13:57;;;;;;;32.05;15.82;;;;;;;2.78;90.64;102106.19;6271939;28;20057;-72
2021/01/10 12:16:58;;;;;;;32.28;15.07;;;;;;;2.68;90.32;102102.72;6271312;28;20045;-72
2021/01/10 12:20:00;;;;;;;32.50;15.38;;;;;;;2.74;90.37;102109.63;6271715;28;20053;-73
2021/01/10 12:23:02;;;;;;;28.83;15.05;;;;;;;2.67;90.69;102111.34;6272040;28;20095;-73
2021/01/10 12:26:07;;;;;;;34.28;15.48;;;;;;;2.76;91.01;102108.75;6271386;28;20425;-73
2021/01/10 12:29:08;;;;;;;33.25;14.57;;;;;;;2.82;90.85;102105.31;6270798;28;20049;-73
2021/01/10 12:32:09;;;;;;;28.67;15.23;;;;;;;2.94;91.45;102097.50;6271647;28;20532;-73
2021/01/10 12:35:12;;;;;;;30.50;14.13;;;;;;;2.81;91.03;102095.78;6271093;28;20040;-73
2021/01/10 12:38:14;;;;;;;30.70;13.43;;;;;;;2.91;90.36;102092.34;6271066;28;20123;-72
2021/01/10 12:41:14;;;;;;;30.08;13.85;;;;;;;2.82;90.77;102094.94;6271296;28;20053;-73
2021/01/10 12:44:15;;;;;;;32.63;12.55;;;;;;;2.84;90.31;102098.38;6271147;28;20059;-73
2021/01/10 12:47:16;;;;;;;26.95;13.88;;;;;;;2.62;91.45;102094.03;6271396;28;20126;-73
2021/01/10 12:50:17;;;;;;;28.30;13.20;;;;;;;2.57;92.39;102085.38;6270976;28;20052;-72
2021/01/10 12:53:19;;;;;;;26.58;13.35;;;;;;;2.81;90.70;102090.59;6271660;28;20424;-73
2021/01/10 12:56:19;;;;;;;27.15;13.23;;;;;;;2.60;91.71;102082.81;6270422;28;20057;-74
2021/01/10 12:59:20;;;;;;;31.83;14.85;;;;;;;2.58;92.23;102082.78;6271039;28;20045;-73
2021/01/10 13:02:21;;;;;;;27.85;14.18;;;;;;;2.56;92.08;102081.06;6271263;28;20045;-73
2021/01/10 13:05:22;;;;;;;27.67;14.25;;;;;;;2.60;92.53;102070.69;6270966;28;20052;-73
2021/01/10 13:08:25;;;;;;;35.40;14.63;;;;;;;2.69;92.27;102075.91;6270722;28;20103;-73
2021/01/10 13:11:26;;;;;;;27.25;13.20;;;;;;;2.73;92.55;102064.66;6270597;28;20099;-73
2021/01/10 13:14:26;;;;;;;33.28;15.02;;;;;;;2.83;92.56;102064.66;6270034;28;20425;-73
2021/01/10 13:17:27;;;;;;;28.80;13.40;;;;;;;2.83;91.61;102059.47;6270662;28;20084;-72
2021/01/10 13:20:28;;;;;;;32.85;14.30;;;;;;;2.78;91.72;102054.28;6270319;28;20057;-73
2021/01/10 13:23:30;;;;;;;34.08;14.02;;;;;;;2.83;91.99;102051.66;6270981;28;20506;-72
2021/01/10 13:26:31;;;;;;;26.02;13.05;;;;;;;2.88;92.33;102055.13;6270700;28;20099;-73
2021/01/10 13:29:32;;;;;;;21.42;11.85;;;;;;;2.94;90.96;102040.38;6270390;28;20049;-73
2021/01/10 13:32:33;;;;;;;29.85;12.50;;;;;;;2.98;90.76;102034.34;6270733;28;20060;-72
2021/01/10 13:35:34;;;;;;;26.30;13.02;;;;;;;2.89;91.26;102025.69;6271008;28;20095;-72
2021/01/10 13:38:36;;;;;;;25.08;11.60;;;;;;;3.02;90.97;102024.81;6270164;28;20390;-73
2021/01/10 13:41:37;;;;;;;23.88;12.15;;;;;;;2.96;91.12;102015.31;6270070;28;20064;-70
2021/01/10 13:44:37;;;;;;;25.95;12.35;;;;;;;2.90;91.00;102019.63;6271022;28;20131;-75
2021/01/10 13:47:39;;;;;;;28.05;13.10;;;;;;;2.91;91.07;102022.25;6270407;28;20045;-72
2021/01/10 13:50:39;;;;;;;24.65;12.23;;;;;;;2.82;91.72;102024.84;6270088;28;20069;-73